createdAt,value
2022-12-01T00:01:17.571Z,5.11
2022-12-01T00:03:44.595Z,4.96
2022-12-01T00:06:17.980Z,5.21
2022-12-01T00:09:04.954Z,5.34
2022-12-01T00:11:32.464Z,5.25
2022-12-01T00:14:01.560Z,5.28
2022-12-01T00:16:29.071Z,5.31
2022-12-01T00:18:56.518Z,5.18
2022-12-01T00:21:25.388Z,4.85
2022-12-01T00:23:55.152Z,5.32
2022-12-01T00:26:23.578Z,5.30
2022-12-01T00:28:55.524Z,5.06
2022-12-01T00:31:22.906Z,5.12
2022-12-01T00:33:50.134Z,4.97
2022-12-01T00:36:17.176Z,4.83
2022-12-01T00:38:44.248Z,5.16
2022-12-01T00:41:11.378Z,5.01
2022-12-01T00:43:38.480Z,4.76
2022-12-01T00:46:05.660Z,4.80
2022-12-01T00:48:32.753Z,4.75
2022-12-01T00:50:59.687Z,4.68
2022-12-01T00:53:26.632Z,4.68
2022-12-01T00:55:54.231Z,4.69
2022-12-01T00:58:21.933Z,4.44
2022-12-01T01:00:58.158Z,4.24
2022-12-01T01:03:26.305Z,4.47
2022-12-01T01:05:53.765Z,4.68
2022-12-01T01:08:21.237Z,4.41
2022-12-01T01:10:49.112Z,4.23
2022-12-01T01:13:16.605Z,4.37
2022-12-01T01:15:43.604Z,4.11
2022-12-01T01:18:12.358Z,4.52
2022-12-01T01:20:39.411Z,4.38
2022-12-01T01:23:06.510Z,4.04
2022-12-01T01:25:33.811Z,4.47
2022-12-01T01:28:00.910Z,4.40
2022-12-01T01:30:28.039Z,4.54
2022-12-01T01:32:55.341Z,3.98
2022-12-01T01:35:22.616Z,4.23
2022-12-01T01:37:51.063Z,4.39
2022-12-01T01:40:18.806Z,4.39
2022-12-01T01:42:45.828Z,4.11
2022-12-01T01:45:26.143Z,4.41
2022-12-01T01:47:55.055Z,4.21
2022-12-01T01:50:27.104Z,4.33
2022-12-01T01:53:03.381Z,4.15
2022-12-01T01:55:34.005Z,4.28
2022-12-01T01:58:02.786Z,4.37
2022-12-01T02:00:29.713Z,3.95
2022-12-01T02:03:00.449Z,4.28
2022-12-01T02:05:32.545Z,4.03
2022-12-01T02:08:01.925Z,4.34
2022-12-01T02:10:50.765Z,4.36
2022-12-01T02:13:46.928Z,4.29
2022-12-01T02:16:54.911Z,4.39
2022-12-01T02:19:37.025Z,4.28
2022-12-01T02:22:22.432Z,4.28
2022-12-01T02:24:52.155Z,4.34
2022-12-01T02:27:37.273Z,4.37
2022-12-01T02:30:08.766Z,4.40
2022-12-01T02:33:14.515Z,4.26
2022-12-01T02:36:42.980Z,4.17
2022-12-01T02:39:30.779Z,4.29
2022-12-01T02:42:39.961Z,4.25
2022-12-01T02:45:13.754Z,4.35
2022-12-01T02:47:42.317Z,4.12
2022-12-01T02:50:11.566Z,4.40
2022-12-01T02:52:40.605Z,4.37
2022-12-01T02:55:07.895Z,4.40
2022-12-01T02:57:34.985Z,4.27
2022-12-01T03:00:02.725Z,4.28
2022-12-01T03:02:42.249Z,4.47
2022-12-01T03:05:29.237Z,4.34
2022-12-01T03:08:20.919Z,4.30
2022-12-01T03:10:57.983Z,4.40
2022-12-01T03:13:55.429Z,4.54
2022-12-01T03:16:38.857Z,4.52
2022-12-01T03:19:36.197Z,4.39
2022-12-01T03:22:14.671Z,4.61
2022-12-01T03:24:46.701Z,4.51
2022-12-01T03:27:16.822Z,4.47
2022-12-01T03:29:47.246Z,4.54
2022-12-01T03:32:18.527Z,4.49
2022-12-01T03:34:58.513Z,4.63
2022-12-01T03:37:32.729Z,4.90
2022-12-01T03:40:02.387Z,3.04
2022-12-01T03:42:37.476Z,4.84
2022-12-01T03:45:09.617Z,4.88
2022-12-01T03:47:37.965Z,5.05
2022-12-01T03:50:08.248Z,4.87
2022-12-01T03:52:53.821Z,5.15
2022-12-01T03:55:24.135Z,5.02
2022-12-01T03:58:00.187Z,5.20
2022-12-01T04:00:31.508Z,4.62
2022-12-01T04:03:02.262Z,4.47
2022-12-01T04:05:30.045Z,4.76
2022-12-01T04:07:57.243Z,4.81
2022-12-01T04:10:24.556Z,5.10
2022-12-01T04:12:58.803Z,4.97
2022-12-01T04:15:26.718Z,5.11
2022-12-01T04:17:54.525Z,5.15
2022-12-01T04:20:21.996Z,4.35
2022-12-01T04:22:49.007Z,4.99
2022-12-01T04:25:16.124Z,4.77
2022-12-01T04:27:43.003Z,4.72
2022-12-01T04:30:11.155Z,4.97
2022-12-01T04:32:43.289Z,5.11
2022-12-01T04:35:11.785Z,4.99
2022-12-01T04:37:39.512Z,5.03
2022-12-01T04:40:07.170Z,5.20
2022-12-01T04:42:34.588Z,4.92
2022-12-01T04:45:01.739Z,5.00
2022-12-01T04:47:28.815Z,4.61
2022-12-01T04:49:55.890Z,5.30
2022-12-01T04:52:22.997Z,4.94
2022-12-01T04:54:49.957Z,4.78
2022-12-01T04:57:17.042Z,5.31
2022-12-01T04:59:43.902Z,5.37
2022-12-01T05:02:10.956Z,5.35
2022-12-01T05:04:41.500Z,5.41
2022-12-01T05:07:08.719Z,4.85
2022-12-01T05:09:35.867Z,5.37
2022-12-01T05:12:02.994Z,5.20
2022-12-01T05:14:30.050Z,5.40
2022-12-01T05:16:58.279Z,5.20
2022-12-01T05:19:43.916Z,5.42
2022-12-01T05:22:10.860Z,5.43
2022-12-01T05:24:37.865Z,5.06
2022-12-01T05:27:04.796Z,4.83
2022-12-01T05:29:33.218Z,5.23
2022-12-01T05:32:00.305Z,5.33
2022-12-01T05:34:27.307Z,5.31
2022-12-01T05:36:54.370Z,5.37
2022-12-01T05:39:21.341Z,5.31
2022-12-01T05:41:48.276Z,5.03
2022-12-01T05:44:15.208Z,5.34
2022-12-01T05:46:42.190Z,5.09
2022-12-01T05:49:09.165Z,5.37
2022-12-01T05:51:36.074Z,5.09
2022-12-01T05:54:03.272Z,5.10
2022-12-01T05:56:30.222Z,5.22
2022-12-01T05:58:57.267Z,5.12
2022-12-01T06:01:24.236Z,5.29
2022-12-01T06:03:53.178Z,5.30
2022-12-01T06:06:20.337Z,5.12
2022-12-01T06:08:47.325Z,5.13
2022-12-01T06:11:14.345Z,5.23
2022-12-01T06:13:41.189Z,5.30
2022-12-01T06:16:08.469Z,5.11
2022-12-01T06:18:37.556Z,5.35
2022-12-01T06:21:06.584Z,5.31
2022-12-01T06:23:33.779Z,5.06
2022-12-01T06:26:00.821Z,5.18
2022-12-01T06:28:27.756Z,5.22
2022-12-01T06:30:59.482Z,5.36
2022-12-01T06:33:31.758Z,5.28
2022-12-01T06:36:04.866Z,5.27
2022-12-01T06:38:36.213Z,5.26
2022-12-01T06:41:04.758Z,5.31
2022-12-01T06:43:32.208Z,5.13
2022-12-01T06:46:02.122Z,5.42
2022-12-01T06:48:30.211Z,5.02
2022-12-01T06:50:58.826Z,5.31
2022-12-01T06:53:27.580Z,5.08
2022-12-01T06:55:59.315Z,5.32
2022-12-01T06:58:26.460Z,5.10
2022-12-01T07:00:53.674Z,5.25
2022-12-01T07:03:20.800Z,4.87
2022-12-01T07:05:58.940Z,5.27
2022-12-01T07:08:30.542Z,5.09
2022-12-01T07:11:04.925Z,5.22
2022-12-01T07:13:33.901Z,5.11
2022-12-01T07:16:03.441Z,5.15
2022-12-01T07:18:31.561Z,5.12
2022-12-01T07:21:03.058Z,5.08
2022-12-01T07:23:30.678Z,5.23
2022-12-01T07:26:07.233Z,5.21
2022-12-01T07:28:34.338Z,4.86
2022-12-01T07:31:06.519Z,4.80
2022-12-01T07:33:33.756Z,5.06
2022-12-01T07:36:01.071Z,5.26
2022-12-01T07:38:29.781Z,5.09
2022-12-01T07:41:04.819Z,5.16
2022-12-01T07:43:32.805Z,4.95
2022-12-01T07:46:07.666Z,4.94
2022-12-01T07:48:37.248Z,5.07
2022-12-01T07:51:05.416Z,5.10
2022-12-01T07:53:32.958Z,4.91
2022-12-01T07:56:07.044Z,4.85
2022-12-01T07:58:35.764Z,5.17
2022-12-01T08:01:08.262Z,5.21
2022-12-01T08:03:36.053Z,5.02
2022-12-01T08:06:04.337Z,5.24
2022-12-01T08:08:36.576Z,5.31
2022-12-01T08:11:06.673Z,5.27
2022-12-01T08:13:34.217Z,5.29
2022-12-01T08:16:05.886Z,5.28
2022-12-01T08:18:40.491Z,4.82
2022-12-01T08:21:09.587Z,5.03
2022-12-01T08:23:36.657Z,5.17
2022-12-01T08:26:05.385Z,5.21
2022-12-01T08:28:32.669Z,4.66
2022-12-01T08:31:02.639Z,5.08
2022-12-01T08:33:29.640Z,5.09
2022-12-01T08:35:56.544Z,5.08
2022-12-01T08:38:23.524Z,4.90
2022-12-01T08:40:50.571Z,5.03
2022-12-01T08:43:34.676Z,4.99
2022-12-01T08:46:04.751Z,4.92
2022-12-01T08:48:31.771Z,4.95
2022-12-01T08:51:08.235Z,5.07
2022-12-01T08:53:42.566Z,5.21
2022-12-01T08:56:19.008Z,5.22
2022-12-01T08:58:46.026Z,5.16
2022-12-01T09:01:15.702Z,4.95
2022-12-01T09:03:43.887Z,5.29
2022-12-01T09:06:17.112Z,5.17
2022-12-01T09:08:44.915Z,5.22
2022-12-01T09:11:14.509Z,5.24
2022-12-01T09:13:42.882Z,5.18
2022-12-01T09:16:18.198Z,5.04
2022-12-01T09:18:46.771Z,4.89
2022-12-01T09:21:18.680Z,5.28
2022-12-01T09:23:46.140Z,5.27
2022-12-01T09:26:18.254Z,5.10
2022-12-01T09:28:49.921Z,5.03
2022-12-01T09:31:18.635Z,4.99
2022-12-01T09:33:45.810Z,4.78
2022-12-01T09:36:13.157Z,5.15
2022-12-01T09:38:40.369Z,5.14
2022-12-01T09:41:24.462Z,5.39
2022-12-01T09:44:17.353Z,5.10
2022-12-01T09:46:53.524Z,5.41
2022-12-01T09:50:05.005Z,5.37
2022-12-01T09:52:54.484Z,5.38
2022-12-01T09:55:24.556Z,5.37
2022-12-01T09:57:57.544Z,5.38
2022-12-01T10:00:26.848Z,5.48
2022-12-01T10:03:09.930Z,5.40
2022-12-01T10:06:18.534Z,5.30
2022-12-01T10:08:41.962Z,5.38
2022-12-01T10:11:21.107Z,5.49
2022-12-01T10:13:48.083Z,5.32
2022-12-01T10:16:24.921Z,5.09
2022-12-01T10:19:18.070Z,5.25
2022-12-01T10:21:44.960Z,5.32
2022-12-01T10:24:26.893Z,5.41
2022-12-01T10:26:59.786Z,5.40
2022-12-01T10:29:35.622Z,5.42
2022-12-01T10:32:11.267Z,5.45
2022-12-01T10:34:41.460Z,5.41
2022-12-01T10:37:35.422Z,5.52
2022-12-01T10:40:02.660Z,5.40
2022-12-01T10:42:41.850Z,5.56
2022-12-01T10:45:31.877Z,5.56
2022-12-01T10:48:18.111Z,5.59
2022-12-01T10:50:50.616Z,5.34
2022-12-01T10:53:23.698Z,5.67
2022-12-01T10:55:59.004Z,5.38
2022-12-01T10:58:26.478Z,5.12
2022-12-01T11:01:00.529Z,5.37
2022-12-01T11:03:33.896Z,5.66
2022-12-01T11:06:04.629Z,5.70
2022-12-01T11:08:45.866Z,5.50
2022-12-01T11:11:33.202Z,5.63
2022-12-01T11:14:03.795Z,5.69
2022-12-01T11:16:38.584Z,5.70
2022-12-01T11:19:33.058Z,5.69
2022-12-01T11:22:02.726Z,5.71
2022-12-01T11:24:44.396Z,5.71
2022-12-01T11:27:17.072Z,5.34
2022-12-01T11:29:46.012Z,5.72
2022-12-01T11:32:26.265Z,5.74
2022-12-01T11:35:05.457Z,5.73
2022-12-01T11:37:39.081Z,5.90
2022-12-01T11:40:33.455Z,5.74
2022-12-01T11:43:03.092Z,5.92
2022-12-01T11:45:34.001Z,5.49
2022-12-01T11:48:21.324Z,5.77
2022-12-01T11:51:27.233Z,5.73
2022-12-01T11:54:06.097Z,5.67
2022-12-01T11:56:33.073Z,5.35
2022-12-01T11:59:05.737Z,5.59
2022-12-01T12:01:47.756Z,5.62
2022-12-01T12:04:20.632Z,5.63
2022-12-01T12:07:09.046Z,5.68
2022-12-01T12:09:57.382Z,5.41
2022-12-01T12:12:37.058Z,5.61
2022-12-01T12:15:13.177Z,5.71
2022-12-01T12:18:14.273Z,5.61
2022-12-01T12:20:53.660Z,5.54
2022-12-01T12:23:42.366Z,5.56
2022-12-01T12:26:47.841Z,5.60
2022-12-01T12:29:51.863Z,5.64
2022-12-01T12:32:48.538Z,5.23
2022-12-01T12:35:27.591Z,5.56
2022-12-01T12:38:15.470Z,5.56
2022-12-01T12:41:05.132Z,5.57
2022-12-01T12:43:52.438Z,5.59
2022-12-01T12:46:29.051Z,5.56
2022-12-01T12:49:19.822Z,5.66
2022-12-01T12:51:56.885Z,5.61
2022-12-01T12:54:30.302Z,5.56
2022-12-01T12:57:19.478Z,4.98
2022-12-01T12:59:55.135Z,5.35
2022-12-01T13:02:34.762Z,5.11
2022-12-01T13:05:20.104Z,5.57
2022-12-01T13:08:14.205Z,5.31
2022-12-01T13:10:44.804Z,5.09
2022-12-01T13:13:46.719Z,5.36
2022-12-01T13:16:18.404Z,5.40
2022-12-01T13:19:03.234Z,5.27
2022-12-01T13:21:43.367Z,5.35
2022-12-01T13:24:23.354Z,5.30
2022-12-01T13:26:56.430Z,5.51
2022-12-01T13:29:25.896Z,5.38
2022-12-01T13:31:55.057Z,5.51
2022-12-01T13:34:41.011Z,5.47
2022-12-01T13:37:10.897Z,5.24
2022-12-01T13:39:40.552Z,5.45
2022-12-01T13:42:20.221Z,5.45
2022-12-01T13:45:00.823Z,5.44
2022-12-01T13:47:54.430Z,5.25
2022-12-01T13:50:39.631Z,5.37
2022-12-01T13:53:35.583Z,5.39
2022-12-01T13:56:17.859Z,5.39
2022-12-01T13:58:48.381Z,5.36
2022-12-01T14:01:21.986Z,5.29
2022-12-01T14:04:11.057Z,5.31
2022-12-01T14:06:49.496Z,5.01
2022-12-01T14:09:33.233Z,5.29
2022-12-01T14:12:05.091Z,5.38
2022-12-01T14:14:41.205Z,4.97
2022-12-01T14:17:26.717Z,5.30
2022-12-01T14:19:55.267Z,5.28
2022-12-01T14:22:44.721Z,5.31
2022-12-01T14:25:20.625Z,5.34
2022-12-01T14:27:50.992Z,5.32
2022-12-01T14:30:39.613Z,5.33
2022-12-01T14:33:42.812Z,5.30
2022-12-01T14:36:31.518Z,5.32
2022-12-01T14:38:58.344Z,5.32
2022-12-01T14:41:46.558Z,5.32
2022-12-01T14:44:35.369Z,5.30
2022-12-01T14:47:07.417Z,5.31
2022-12-01T14:49:59.493Z,5.33
2022-12-01T14:52:58.471Z,5.33
2022-12-01T14:55:30.243Z,5.32
2022-12-01T14:58:07.897Z,4.88
2022-12-01T15:00:38.500Z,4.94
2022-12-01T15:03:09.816Z,5.31
2022-12-01T15:05:42.763Z,5.34
2022-12-01T15:11:21.063Z,5.33
2022-12-01T15:13:51.060Z,5.30
2022-12-01T15:16:21.219Z,5.17
2022-12-01T15:18:48.658Z,5.27
2022-12-01T15:21:16.106Z,5.34
2022-12-01T15:24:02.781Z,5.34
2022-12-01T15:26:33.623Z,5.34
2022-12-01T15:29:24.183Z,5.18
2022-12-01T15:31:54.833Z,5.31
2022-12-01T15:34:30.905Z,5.07
2022-12-01T15:36:59.622Z,4.99
2022-12-01T15:39:33.483Z,4.76
2022-12-01T15:42:01.197Z,5.29
2022-12-01T15:44:34.099Z,4.82
2022-12-01T15:47:44.324Z,5.00
2022-12-01T15:50:31.220Z,5.20
2022-12-01T15:53:01.067Z,4.99
2022-12-01T15:55:38.498Z,5.08
2022-12-01T15:58:13.738Z,5.11
2022-12-01T16:00:40.835Z,5.22
2022-12-01T16:03:14.028Z,5.01
2022-12-01T16:05:44.626Z,5.22
2022-12-01T16:08:20.715Z,5.04
2022-12-01T16:11:15.062Z,5.21
2022-12-01T16:13:49.237Z,5.22
2022-12-01T16:16:48.239Z,5.22
2022-12-01T16:19:18.045Z,5.19
2022-12-01T16:21:54.084Z,5.18
2022-12-01T16:24:33.804Z,5.20
2022-12-01T16:27:05.093Z,5.23
2022-12-01T16:29:37.467Z,5.09
2022-12-01T16:32:20.626Z,5.18
2022-12-01T16:34:49.478Z,4.44
2022-12-01T16:37:16.562Z,4.93
2022-12-01T16:39:43.797Z,4.65
2022-12-01T16:42:21.215Z,4.88
2022-12-01T16:44:50.269Z,4.93
2022-12-01T16:47:25.507Z,5.07
2022-12-01T16:49:52.991Z,5.07
2022-12-01T16:55:24.445Z,5.15
2022-12-01T16:57:51.534Z,4.97
2022-12-01T17:00:18.958Z,4.66
2022-12-01T17:02:46.006Z,5.10
2022-12-01T17:05:13.079Z,4.74
2022-12-01T17:07:41.756Z,4.85
2022-12-01T17:10:09.348Z,4.79
2022-12-01T17:12:36.376Z,5.09
2022-12-01T17:15:04.397Z,5.09
2022-12-01T17:17:31.461Z,5.09
2022-12-01T17:19:58.454Z,4.71
2022-12-01T17:22:25.531Z,5.03
2022-12-01T17:24:54.629Z,5.05
2022-12-01T17:27:23.216Z,4.84
2022-12-01T17:29:50.162Z,5.09
2022-12-01T17:32:17.426Z,5.19
2022-12-01T17:34:44.410Z,4.91
2022-12-01T17:37:14.878Z,4.85
2022-12-01T17:39:44.534Z,5.08
2022-12-01T17:42:11.417Z,5.08
2022-12-01T17:44:38.490Z,4.84
2022-12-01T17:47:05.532Z,5.09
2022-12-01T17:49:32.541Z,4.93
2022-12-01T17:51:59.554Z,5.02
2022-12-01T17:54:26.475Z,4.91
2022-12-01T17:56:53.420Z,4.76
2022-12-01T17:59:20.506Z,4.97
2022-12-01T18:01:48.392Z,4.66
2022-12-01T18:04:15.422Z,5.01
2022-12-01T18:06:43.108Z,4.88
2022-12-01T18:09:10.163Z,4.63
2022-12-01T18:11:37.189Z,5.05
2022-12-01T18:14:04.181Z,4.27
2022-12-01T18:16:32.471Z,5.08
2022-12-01T18:19:00.542Z,5.00
2022-12-01T18:21:28.469Z,5.06
2022-12-01T18:24:01.546Z,5.05
2022-12-01T18:26:30.034Z,4.96
2022-12-01T18:29:02.607Z,4.81
2022-12-01T18:31:30.628Z,5.03
2022-12-01T18:33:59.423Z,4.97
2022-12-01T18:36:26.855Z,4.96
2022-12-01T18:38:54.690Z,4.70
2022-12-01T18:41:21.717Z,5.06
2022-12-01T18:43:48.883Z,4.96
2022-12-01T18:46:17.374Z,4.81
2022-12-01T18:48:49.799Z,4.95
2022-12-01T18:51:17.509Z,4.90
2022-12-01T18:53:45.688Z,4.79
2022-12-01T18:56:15.203Z,4.91
2022-12-01T18:58:43.027Z,4.82
2022-12-01T19:01:25.311Z,4.66
2022-12-01T19:03:54.122Z,4.62
2022-12-01T19:06:21.702Z,4.87
2022-12-01T19:08:49.158Z,4.90
2022-12-01T19:11:16.809Z,4.76
2022-12-01T19:13:44.305Z,4.87
2022-12-01T19:16:16.401Z,4.96
2022-12-01T19:18:43.895Z,4.94
2022-12-01T19:21:12.901Z,4.94
2022-12-01T19:23:40.462Z,4.95
2022-12-01T19:26:11.239Z,4.81
2022-12-01T19:28:39.001Z,4.88
2022-12-01T19:31:08.392Z,4.99
2022-12-01T19:33:35.826Z,4.69
2022-12-01T19:36:11.122Z,4.92
2022-12-01T19:38:38.569Z,4.95
2022-12-01T19:41:06.609Z,4.89
2022-12-01T19:43:35.001Z,4.96
2022-12-01T19:46:10.190Z,4.96
2022-12-01T19:48:37.314Z,4.71
2022-12-01T19:51:04.901Z,4.94
2022-12-01T19:53:34.085Z,4.61
2022-12-01T19:56:05.467Z,4.96
2022-12-01T19:58:33.595Z,4.74
2022-12-01T20:01:09.208Z,4.94
2022-12-01T20:03:37.873Z,4.95
2022-12-01T20:06:08.588Z,4.95
2022-12-01T20:08:36.200Z,4.77
2022-12-01T20:11:04.447Z,4.96
2022-12-01T20:13:33.739Z,4.95
2022-12-01T20:16:02.979Z,4.70
2022-12-01T20:18:30.199Z,4.97
2022-12-01T20:21:22.979Z,4.95
2022-12-01T20:23:54.831Z,4.97
2022-12-01T20:26:26.180Z,4.87
2022-12-01T20:29:09.061Z,4.71
2022-12-01T20:31:37.882Z,4.98
2022-12-01T20:34:09.099Z,4.81
2022-12-01T20:36:36.817Z,4.39
2022-12-01T20:39:05.666Z,4.97
2022-12-01T20:41:32.768Z,4.48
2022-12-01T20:44:03.872Z,4.72
2022-12-01T20:46:35.320Z,4.98
2022-12-01T20:49:02.489Z,4.92
2022-12-01T20:51:33.397Z,4.74
2022-12-01T20:54:27.377Z,4.93
2022-12-01T20:56:52.670Z,4.66
2022-12-01T20:59:19.728Z,4.80
2022-12-01T21:01:46.598Z,4.75
2022-12-01T21:04:13.606Z,4.51
2022-12-01T21:06:40.524Z,4.91
2022-12-01T21:09:08.621Z,4.75
2022-12-01T21:12:04.705Z,4.63
2022-12-01T21:14:41.349Z,4.91
2022-12-01T21:17:33.285Z,4.92
2022-12-01T21:20:25.662Z,4.90
2022-12-01T21:22:53.835Z,4.77
2022-12-01T21:25:25.765Z,4.84
2022-12-01T21:27:58.953Z,4.59
2022-12-01T21:30:26.475Z,4.88
2022-12-01T21:32:54.328Z,4.60
2022-12-01T21:35:24.877Z,4.91
2022-12-01T21:37:59.881Z,4.66
2022-12-01T21:40:27.558Z,4.86
2022-12-01T21:42:56.551Z,4.92
2022-12-01T21:45:32.183Z,4.89
2022-12-01T21:48:17.992Z,4.56
2022-12-01T21:50:49.352Z,4.31
2022-12-01T21:53:20.431Z,4.58
2022-12-01T21:55:48.056Z,4.53
2022-12-01T21:58:30.697Z,4.81
2022-12-01T22:00:59.230Z,4.56
2022-12-01T22:03:38.149Z,4.55
2022-12-01T22:06:29.300Z,4.59
2022-12-01T22:09:10.675Z,4.79
2022-12-01T22:11:37.847Z,4.31
2022-12-01T22:14:37.508Z,4.84
2022-12-01T22:17:07.487Z,4.82
2022-12-01T22:19:58.359Z,4.81
2022-12-01T22:22:27.693Z,4.42
2022-12-01T22:25:18.631Z,4.77
2022-12-01T22:27:48.526Z,4.18
2022-12-01T22:30:24.747Z,4.73
2022-12-01T22:32:57.445Z,4.78
2022-12-01T22:35:24.506Z,4.84
2022-12-01T22:37:52.995Z,4.64
2022-12-01T22:40:45.824Z,4.59
2022-12-01T22:43:15.933Z,4.85
2022-12-01T22:45:45.260Z,4.87
2022-12-01T22:48:39.112Z,4.87
2022-12-01T22:51:26.491Z,4.87
2022-12-01T22:53:58.613Z,4.09
2022-12-01T22:56:41.415Z,4.64
2022-12-01T22:59:31.919Z,4.90
2022-12-01T23:02:02.251Z,4.88
2022-12-01T23:04:31.837Z,4.72
2022-12-01T23:07:20.157Z,4.78
2022-12-01T23:09:47.340Z,4.85
2022-12-01T23:12:24.302Z,4.65
2022-12-01T23:14:54.140Z,4.90
2022-12-01T23:17:30.904Z,4.89
2022-12-01T23:20:10.396Z,4.71
2022-12-01T23:22:38.403Z,4.88
2022-12-01T23:25:14.496Z,4.56
2022-12-01T23:27:42.408Z,4.94
2022-12-01T23:30:10.417Z,4.73
2022-12-01T23:32:37.725Z,4.54
2022-12-01T23:35:06.058Z,4.73
2022-12-01T23:37:41.825Z,4.94
2022-12-01T23:40:19.423Z,4.67
2022-12-01T23:42:46.673Z,4.60
2022-12-01T23:45:21.790Z,4.92
2022-12-01T23:47:50.166Z,4.59
2022-12-01T23:50:22.277Z,4.59
2022-12-01T23:52:49.532Z,4.81
2022-12-01T23:55:27.454Z,4.71
2022-12-01T23:57:54.778Z,4.93
